Time;durP1;ratioP1;P1;durP2;ratioP2;P2;SDS_P1;SDS_P2;PMS_P1;PMS_P2;Temp;Humidity;BMP_temperature;BMP_pressure;BME280_temperature;BME280_humidity;BME280_pressure;Samples;Min_cycle;Max_cycle;Signal;HPM_P1;HPM_P2
2023/10/22 00:02:11;;;;;;;4.85;1.20;;;13.20;99.90;;;;;;5092724;28;20409;-46
2023/10/22 00:04:40;;;;;;;8.90;1.67;;;13.20;99.90;;;;;;5091710;28;20028;-49
2023/10/22 00:07:07;;;;;;;6.80;1.42;;;13.20;99.90;;;;;;5092238;28;20048;-47
2023/10/22 00:09:33;;;;;;;6.45;1.65;;;13.30;99.90;;;;;;5092457;28;20036;-47
2023/10/22 00:11:59;;;;;;;5.43;1.67;;;13.30;99.90;;;;;;5067305;28;20044;-48
2023/10/22 00:14:25;;;;;;;6.45;1.58;;;13.30;99.90;;;;;;5066980;28;20039;-46
2023/10/22 00:16:50;;;;;;;6.18;1.70;;;13.30;99.90;;;;;;5092064;28;20032;-47
2023/10/22 00:19:16;;;;;;;6.40;1.55;;;13.30;99.90;;;;;;5092121;28;20488;-48
2023/10/22 00:21:42;;;;;;;7.95;1.88;;;13.30;99.90;;;;;;5092380;28;20068;-48
2023/10/22 00:24:08;;;;;;;5.28;1.08;;;13.30;99.90;;;;;;5092060;28;20039;-46
2023/10/22 00:26:34;;;;;;;8.02;1.98;;;13.30;99.90;;;;;;5074168;28;20039;-48
2023/10/22 00:28:59;;;;;;;6.43;1.70;;;13.30;99.90;;;;;;5074054;28;20048;-49
2023/10/22 00:31:25;;;;;;;5.75;1.40;;;13.30;99.90;;;;;;5092193;28;20032;-47
2023/10/22 00:33:51;;;;;;;7.78;1.63;;;13.30;99.90;;;;;;5091818;28;20367;-51
2023/10/22 00:36:16;;;;;;;6.72;1.77;;;13.30;99.90;;;;;;5092177;28;20036;-49
2023/10/22 00:38:42;;;;;;;4.40;1.20;;;13.30;99.90;;;;;;5091944;28;20044;-49
2023/10/22 00:41:08;;;;;;;5.40;1.50;;;13.30;99.90;;;;;;5091765;28;20036;-50
2023/10/22 00:43:33;;;;;;;4.65;1.52;;;13.30;99.90;;;;;;5092340;28;20039;-48
2023/10/22 00:46:00;;;;;;;6.53;1.50;;;13.30;99.90;;;;;;5091932;28;20576;-47
2023/10/22 00:48:26;;;;;;;5.63;1.30;;;13.30;99.90;;;;;;5092070;28;20071;-46
2023/10/22 00:50:52;;;;;;;8.90;1.30;;;13.40;99.90;;;;;;5091844;28;20044;-48
2023/10/22 00:53:19;;;;;;;4.15;1.40;;;13.40;99.90;;;;;;5091955;28;20032;-49
2023/10/22 00:55:47;;;;;;;4.63;1.20;;;13.30;99.90;;;;;;5091643;28;20118;-47
2023/10/22 00:58:14;;;;;;;9.05;1.58;;;13.30;99.90;;;;;;5091734;28;20040;-47
2023/10/22 01:00:41;;;;;;;5.45;0.93;;;13.30;99.90;;;;;;5091910;28;20036;-50
2023/10/22 01:03:07;;;;;;;6.78;1.30;;;13.30;99.90;;;;;;5091683;28;20035;-47
2023/10/22 01:05:37;;;;;;;3.10;1.30;;;13.30;99.90;;;;;;5091755;28;20071;-48
2023/10/22 01:08:06;;;;;;;5.35;1.45;;;13.40;99.90;;;;;;5073574;28;20114;-48
2023/10/22 01:10:35;;;;;;;5.10;1.05;;;13.40;99.90;;;;;;5091560;28;20040;-46
2023/10/22 01:13:01;;;;;;;2.28;1.13;;;13.40;99.90;;;;;;5091510;28;20036;-47
2023/10/22 01:15:27;;;;;;;6.82;1.00;;;13.40;99.90;;;;;;5094003;28;20541;-46
2023/10/22 01:17:53;;;;;;;2.55;1.00;;;13.40;99.90;;;;;;5095664;28;20228;-47
2023/10/22 01:20:19;;;;;;;5.57;1.15;;;13.40;99.90;;;;;;5095624;28;20498;-48
2023/10/22 01:22:45;;;;;;;8.70;1.25;;;13.40;99.90;;;;;;5094177;28;20136;-48
2023/10/22 01:25:10;;;;;;;5.25;0.93;;;13.50;99.90;;;;;;5095828;28;20067;-51
2023/10/22 01:27:37;;;;;;;2.78;1.15;;;13.40;99.90;;;;;;5095675;28;20114;-49
2023/10/22 01:30:03;;;;;;;4.35;1.00;;;13.40;99.90;;;;;;5095609;28;20048;-48
2023/10/22 01:32:33;;;;;;;5.45;0.95;;;13.40;99.90;;;;;;5095430;28;20032;-49
2023/10/22 01:35:02;;;;;;;7.78;1.42;;;13.30;99.90;;;;;;5095790;28;20044;-47
2023/10/22 01:37:28;;;;;;;4.18;1.10;;;13.30;99.90;;;;;;5095350;28;20129;-47
2023/10/22 01:39:54;;;;;;;5.35;1.05;;;13.30;99.90;;;;;;5095237;28;20150;-48
2023/10/22 01:42:20;;;;;;;4.53;0.98;;;13.20;99.90;;;;;;5095787;28;20036;-48
2023/10/22 01:44:46;;;;;;;2.50;0.82;;;13.20;99.90;;;;;;5095127;28;20036;-48
2023/10/22 01:47:12;;;;;;;3.35;1.05;;;13.20;99.90;;;;;;5095218;28;20032;-49
2023/10/22 01:49:38;;;;;;;4.85;1.23;;;13.10;99.90;;;;;;5094964;28;20048;-49
2023/10/22 01:52:04;;;;;;;6.35;1.02;;;13.10;99.90;;;;;;5095102;28;20039;-47
2023/10/22 01:54:30;;;;;;;4.88;1.02;;;13.00;99.90;;;;;;5095298;28;20047;-47
2023/10/22 01:56:56;;;;;;;4.40;1.10;;;13.00;99.90;;;;;;5094926;28;20032;-48
2023/10/22 01:59:22;;;;;;;6.53;1.25;;;13.00;99.90;;;;;;5095018;28;20097;-50
2023/10/22 02:01:48;;;;;;;4.03;1.25;;;12.90;99.90;;;;;;5094727;28;20500;-48
2023/10/22 02:04:13;;;;;;;3.53;1.35;;;12.90;99.90;;;;;;5094900;28;20043;-50
2023/10/22 02:06:39;;;;;;;5.18;1.30;;;12.80;99.90;;;;;;5094864;28;20465;-47
2023/10/22 02:09:05;;;;;;;3.58;1.13;;;12.80;99.90;;;;;;5094637;28;20044;-46
2023/10/22 02:11:31;;;;;;;5.47;1.50;;;12.70;99.90;;;;;;5094642;28;20080;-47
2023/10/22 02:13:58;;;;;;;4.43;1.40;;;12.70;99.90;;;;;;5094818;28;20074;-47
2023/10/22 02:16:24;;;;;;;5.95;1.42;;;12.60;99.90;;;;;;5094584;28;20051;-49
2023/10/22 02:18:49;;;;;;;4.07;1.40;;;12.60;99.90;;;;;;5094634;28;20044;-47
2023/10/22 02:21:16;;;;;;;5.68;1.30;;;12.50;99.90;;;;;;5094297;28;20453;-45
2023/10/22 02:23:42;;;;;;;7.82;2.10;;;12.50;99.90;;;;;;5094767;28;20111;-48
2023/10/22 02:26:08;;;;;;;6.53;1.45;;;12.50;99.90;;;;;;5093274;28;20036;-49
2023/10/22 02:28:34;;;;;;;9.93;1.80;;;12.40;99.90;;;;;;5094586;28;20490;-47
2023/10/22 02:31:00;;;;;;;4.68;1.10;;;12.40;99.90;;;;;;5095002;28;20381;-46
2023/10/22 02:33:26;;;;;;;5.13;1.08;;;12.40;99.90;;;;;;5076862;28;20051;-48
2023/10/22 02:35:51;;;;;;;6.05;1.55;;;12.40;99.90;;;;;;5094089;28;20541;-45
2023/10/22 02:38:18;;;;;;;8.90;1.10;;;12.30;99.90;;;;;;5094164;28;20040;-46
2023/10/22 02:40:48;;;;;;;5.50;1.35;;;12.30;99.90;;;;;;5094233;28;20059;-44
2023/10/22 02:43:15;;;;;;;2.70;1.15;;;12.20;99.90;;;;;;5076499;28;20032;-47
2023/10/22 02:45:54;;;;;;;4.60;1.77;;;12.20;99.90;;;;;;5094128;28;20051;-45
2023/10/22 02:48:20;;;;;;;6.78;1.48;;;12.20;99.90;;;;;;5080619;28;20100;-47
2023/10/22 02:50:46;;;;;;;5.95;2.00;;;12.20;99.90;;;;;;5094265;28;20044;-46
2023/10/22 02:53:13;;;;;;;4.43;1.60;;;12.20;99.90;;;;;;5094021;28;20048;-44
2023/10/22 02:55:39;;;;;;;6.95;2.08;;;12.20;99.90;;;;;;5093991;28;20047;-46
2023/10/22 02:58:05;;;;;;;5.53;2.25;;;12.10;99.90;;;;;;5093771;28;20032;-45
2023/10/22 03:00:32;;;;;;;3.97;1.98;;;12.10;99.90;;;;;;5093860;28;20568;-47
2023/10/22 03:02:58;;;;;;;4.78;2.13;;;12.10;99.90;;;;;;5093854;28;20032;-45
2023/10/22 03:05:24;;;;;;;6.28;1.67;;;12.10;99.90;;;;;;5093900;28;20044;-45
2023/10/22 03:07:50;;;;;;;8.23;2.33;;;12.10;99.90;;;;;;5093494;28;20078;-45
2023/10/22 03:10:16;;;;;;;2.75;1.40;;;12.10;99.90;;;;;;5093461;28;20042;-47
2023/10/22 03:12:42;;;;;;;3.28;1.60;;;12.20;99.90;;;;;;5093638;28;20072;-46
2023/10/22 03:15:08;;;;;;;3.58;1.60;;;12.20;99.90;;;;;;5093368;28;20055;-45
2023/10/22 03:17:34;;;;;;;4.30;1.77;;;12.10;99.90;;;;;;5093588;28;20409;-46
2023/10/22 03:20:00;;;;;;;3.92;1.77;;;12.10;99.90;;;;;;5093635;28;20040;-44
2023/10/22 03:22:26;;;;;;;4.15;1.63;;;12.10;99.90;;;;;;5093768;28;20043;-45
2023/10/22 03:24:52;;;;;;;6.03;1.88;;;12.10;99.90;;;;;;5093471;28;20066;-47
2023/10/22 03:27:18;;;;;;;5.88;1.95;;;12.10;99.90;;;;;;5093271;28;20040;-46
2023/10/22 03:29:44;;;;;;;5.00;2.25;;;12.10;99.90;;;;;;5092994;28;20447;-47
2023/10/22 03:32:10;;;;;;;6.82;1.90;;;12.10;99.90;;;;;;5093495;28;20396;-47
2023/10/22 03:34:38;;;;;;;3.90;1.65;;;12.10;99.90;;;;;;5093146;28;20044;-46
2023/10/22 03:37:04;;;;;;;4.38;1.90;;;12.00;99.90;;;;;;5093006;28;20392;-44
2023/10/22 03:39:31;;;;;;;6.15;1.80;;;12.10;99.90;;;;;;5093023;28;20036;-43
2023/10/22 03:41:57;;;;;;;6.90;1.63;;;12.00;99.90;;;;;;5093077;28;20078;-46
2023/10/22 03:44:22;;;;;;;7.00;1.88;;;12.10;99.90;;;;;;5092801;28;20063;-45
2023/10/22 03:46:48;;;;;;;5.22;1.92;;;12.10;99.90;;;;;;5074825;28;20039;-45
2023/10/22 03:49:14;;;;;;;7.30;1.67;;;12.10;99.90;;;;;;5092880;28;20048;-45
2023/10/22 03:51:40;;;;;;;4.32;1.55;;;12.20;99.90;;;;;;5093004;28;20036;-45
2023/10/22 03:54:06;;;;;;;3.88;1.50;;;12.10;99.90;;;;;;5092890;28;20474;-45
2023/10/22 03:56:31;;;;;;;3.70;1.40;;;12.20;99.90;;;;;;5092775;28;20027;-46
2023/10/22 03:58:57;;;;;;;7.40;1.90;;;12.20;99.90;;;;;;5092674;28;20401;-44
2023/10/22 04:01:23;;;;;;;4.50;1.45;;;12.20;99.90;;;;;;5092474;28;20036;-45
2023/10/22 04:03:48;;;;;;;4.65;1.60;;;12.30;99.90;;;;;;5092606;28;20110;-44
2023/10/22 04:06:15;;;;;;;3.75;1.60;;;12.20;99.90;;;;;;5092507;28;20375;-45
2023/10/22 04:08:40;;;;;;;4.32;1.83;;;12.20;99.90;;;;;;5092195;28;20085;-44
2023/10/22 04:11:07;;;;;;;3.58;1.55;;;12.30;99.90;;;;;;5092683;28;20495;-46
2023/10/22 04:13:33;;;;;;;4.32;1.58;;;12.30;99.90;;;;;;5093066;28;20567;-47
2023/10/22 04:15:59;;;;;;;4.85;1.60;;;12.20;99.90;;;;;;5092435;28;20032;-46
2023/10/22 04:18:25;;;;;;;4.18;1.52;;;12.20;99.90;;;;;;5092148;28;20051;-45
2023/10/22 04:20:50;;;;;;;3.50;1.35;;;12.20;99.90;;;;;;5092406;28;20119;-45
2023/10/22 04:23:16;;;;;;;6.63;1.50;;;12.10;99.90;;;;;;5092320;28;20036;-47
2023/10/22 04:25:45;;;;;;;5.30;1.38;;;12.30;99.90;;;;;;5092181;28;20050;-46
2023/10/22 04:28:13;;;;;;;3.58;1.50;;;12.20;99.90;;;;;;5092143;28;20123;-47
2023/10/22 04:30:40;;;;;;;2.15;1.50;;;12.10;99.90;;;;;;5092131;28;20032;-45
2023/10/22 04:33:06;;;;;;;2.50;1.50;;;12.20;99.90;;;;;;5092089;28;20412;-44
2023/10/22 04:35:33;;;;;;;5.65;1.60;;;12.30;99.90;;;;;;5092239;28;20051;-47
2023/10/22 04:37:59;;;;;;;3.08;1.33;;;12.20;99.90;;;;;;5091864;28;20073;-44
2023/10/22 04:40:26;;;;;;;2.42;1.40;;;12.10;99.90;;;;;;5092057;28;20119;-46
2023/10/22 04:42:57;;;;;;;2.25;1.20;;;12.30;99.90;;;;;;5091781;28;20028;-44
2023/10/22 04:45:23;;;;;;;1.80;1.10;;;12.30;99.90;;;;;;5092259;28;20036;-47
2023/10/22 04:47:48;;;;;;;2.88;1.33;;;12.10;99.90;;;;;;5091680;28;20501;-45
2023/10/22 04:50:14;;;;;;;2.33;1.30;;;12.20;99.90;;;;;;5091409;28;20047;-48
2023/10/22 04:52:40;;;;;;;2.40;1.20;;;12.30;99.90;;;;;;5091610;28;20436;-46
2023/10/22 04:55:06;;;;;;;2.35;1.30;;;12.20;99.90;;;;;;5091669;28;20097;-47
2023/10/22 04:57:32;;;;;;;1.70;1.10;;;12.30;99.90;;;;;;5091818;28;20040;-48
2023/10/22 04:59:57;;;;;;;2.97;1.13;;;12.30;99.90;;;;;;5091737;28;20109;-44
2023/10/22 05:02:23;;;;;;;4.50;1.35;;;12.20;99.90;;;;;;5091668;28;20040;-46
2023/10/22 05:04:51;;;;;;;1.65;0.90;;;12.20;99.90;;;;;;5091421;28;20071;-45
2023/10/22 05:07:17;;;;;;;3.85;1.20;;;12.30;99.90;;;;;;5091360;28;20107;-45
2023/10/22 05:09:43;;;;;;;1.38;1.02;;;12.30;99.90;;;;;;5091454;28;20131;-45
2023/10/22 05:12:09;;;;;;;2.80;1.20;;;12.30;99.90;;;;;;5091427;28;20034;-45
2023/10/22 05:14:34;;;;;;;1.48;1.30;;;12.20;99.90;;;;;;5091724;28;20052;-44
2023/10/22 05:17:00;;;;;;;3.08;1.10;;;12.20;99.90;;;;;;5091582;28;20032;-45
2023/10/22 05:19:26;;;;;;;2.28;1.90;;;12.40;99.90;;;;;;5073308;28;20484;-45
2023/10/22 05:21:52;;;;;;;2.13;1.55;;;12.30;99.90;;;;;;5091483;28;20057;-48
2023/10/22 05:24:18;;;;;;;3.83;1.83;;;12.30;99.90;;;;;;5091366;28;20116;-47
2023/10/22 05:26:43;;;;;;;3.70;2.30;;;12.30;99.90;;;;;;5091385;28;20464;-47
2023/10/22 05:29:09;;;;;;;2.53;2.00;;;12.30;99.90;;;;;;5091630;28;20044;-47
2023/10/22 05:31:35;;;;;;;3.10;2.30;;;12.30;99.90;;;;;;5091882;28;20151;-46
2023/10/22 05:34:01;;;;;;;3.35;2.60;;;12.30;99.90;;;;;;5091365;28;20122;-46
2023/10/22 05:36:27;;;;;;;3.95;2.90;;;12.50;99.90;;;;;;5091345;28;20078;-46
2023/10/22 05:38:53;;;;;;;3.22;2.92;;;12.30;99.90;;;;;;5091238;28;20044;-46
2023/10/22 05:41:21;;;;;;;5.22;3.67;;;12.50;99.90;;;;;;5091027;28;20040;-44
2023/10/22 05:43:48;;;;;;;4.63;3.33;;;12.40;99.90;;;;;;5091235;28;20062;-45
2023/10/22 05:46:14;;;;;;;4.13;3.70;;;12.50;99.90;;;;;;5090938;28;20039;-46
2023/10/22 05:48:40;;;;;;;5.40;4.10;;;12.60;99.90;;;;;;5091376;28;20033;-45
2023/10/22 05:51:05;;;;;;;5.88;3.78;;;12.40;99.90;;;;;;5091110;28;20474;-47
2023/10/22 05:53:31;;;;;;;4.70;3.78;;;12.40;99.90;;;;;;5091180;28;20119;-45
2023/10/22 05:55:58;;;;;;;6.38;4.43;;;12.60;99.90;;;;;;5091317;28;20465;-45
2023/10/22 05:58:26;;;;;;;4.68;4.13;;;12.50;99.90;;;;;;5091055;28;20077;-44
2023/10/22 06:00:53;;;;;;;6.38;3.95;;;12.50;99.90;;;;;;5092602;28;20032;-45
2023/10/22 06:03:19;;;;;;;4.63;3.28;;;12.60;99.90;;;;;;5076889;28;20426;-44
2023/10/22 06:05:45;;;;;;;5.28;3.83;;;12.50;99.90;;;;;;5094832;28;20462;-44
2023/10/22 06:08:11;;;;;;;4.00;3.60;;;12.60;99.90;;;;;;5094399;28;20048;-47
2023/10/22 06:10:44;;;;;;;3.50;3.20;;;12.60;99.90;;;;;;5094806;28;20047;-48
2023/10/22 06:13:11;;;;;;;2.10;1.90;;;12.60;99.90;;;;;;5094634;28;20098;-47
2023/10/22 06:15:38;;;;;;;2.08;1.02;;;12.60;99.90;;;;;;5094798;28;20043;-45
2023/10/22 06:18:04;;;;;;;2.35;0.70;;;12.60;99.90;;;;;;5076508;28;20039;-46
2023/10/22 06:20:31;;;;;;;3.47;0.90;;;12.60;99.90;;;;;;5076331;28;20051;-46
2023/10/22 06:22:57;;;;;;;6.78;1.17;;;12.60;99.90;;;;;;5094565;28;20074;-47
2023/10/22 06:25:23;;;;;;;4.63;1.50;;;12.40;99.90;;;;;;5094577;28;20062;-47
2023/10/22 06:27:50;;;;;;;2.95;1.10;;;12.40;99.90;;;;;;5094433;28;20092;-46
2023/10/22 06:30:21;;;;;;;3.13;1.20;;;12.40;99.90;;;;;;5094397;28;20485;-44
2023/10/22 06:32:49;;;;;;;2.70;1.25;;;12.30;99.90;;;;;;5076209;28;20062;-46
2023/10/22 06:35:15;;;;;;;5.45;1.25;;;12.20;99.90;;;;;;5094224;28;20036;-46
2023/10/22 06:37:40;;;;;;;7.13;1.23;;;12.20;99.90;;;;;;5094149;28;20519;-46
2023/10/22 06:40:07;;;;;;;3.92;1.33;;;12.30;99.90;;;;;;5094106;28;20042;-45
2023/10/22 06:42:33;;;;;;;6.68;1.85;;;12.30;99.90;;;;;;5094101;28;20473;-45
2023/10/22 06:44:59;;;;;;;7.63;1.40;;;12.30;99.90;;;;;;5094244;28;20106;-46
2023/10/22 06:47:25;;;;;;;3.92;1.20;;;12.30;99.90;;;;;;5094128;28;20505;-48
2023/10/22 06:49:52;;;;;;;2.38;0.93;;;12.20;99.90;;;;;;5093824;28;20063;-45
2023/10/22 06:52:18;;;;;;;5.40;0.95;;;12.10;99.90;;;;;;5094360;28;20042;-47
2023/10/22 06:54:44;;;;;;;6.32;1.40;;;12.10;99.90;;;;;;5093901;28;20417;-45
2023/10/22 06:57:10;;;;;;;6.95;1.20;;;12.00;99.90;;;;;;5094019;28;20039;-46
2023/10/22 06:59:36;;;;;;;8.80;1.20;;;12.20;99.90;;;;;;5093856;28;20036;-44
2023/10/22 07:02:02;;;;;;;7.05;1.65;;;12.10;99.90;;;;;;5093965;28;20519;-46
2023/10/22 07:04:27;;;;;;;5.97;1.45;;;12.10;99.90;;;;;;5093514;28;20055;-46
2023/10/22 07:06:53;;;;;;;6.72;1.50;;;12.10;99.90;;;;;;5093852;28;20036;-45
2023/10/22 07:09:19;;;;;;;7.15;1.52;;;12.10;99.90;;;;;;5093424;28;20056;-49
2023/10/22 07:11:46;;;;;;;8.20;2.30;;;12.10;99.90;;;;;;5093112;28;20044;-45
2023/10/22 07:14:12;;;;;;;8.73;1.65;;;12.20;99.90;;;;;;5093467;28;20040;-45
2023/10/22 07:16:38;;;;;;;7.45;1.50;;;12.10;99.90;;;;;;5093281;28;20040;-45
2023/10/22 07:19:04;;;;;;;7.18;1.77;;;12.00;99.90;;;;;;5093462;28;20051;-45
2023/10/22 07:21:29;;;;;;;6.88;1.98;;;12.10;99.90;;;;;;5093865;28;20039;-47
2023/10/22 07:23:55;;;;;;;13.05;2.70;;;12.00;99.90;;;;;;5093609;28;20028;-45
2023/10/22 07:26:21;;;;;;;8.15;1.73;;;12.00;99.90;;;;;;5093470;28;20115;-48
2023/10/22 07:28:48;;;;;;;7.53;1.92;;;12.10;99.90;;;;;;5093166;28;20389;-43
2023/10/22 07:31:17;;;;;;;7.03;2.10;;;12.00;99.90;;;;;;5089402;28;20501;-50
2023/10/22 07:33:43;;;;;;;7.72;1.60;;;12.10;99.90;;;;;;5088721;28;20032;-47
2023/10/22 07:36:09;;;;;;;7.50;1.90;;;12.00;99.90;;;;;;5092513;28;20157;-47
2023/10/22 07:38:37;;;;;;;6.43;1.60;;;12.10;99.90;;;;;;5091840;28;20076;-46
2023/10/22 07:41:02;;;;;;;14.30;3.60;;;11.90;99.90;;;;;;5088444;28;20035;-45
2023/10/22 07:43:29;;;;;;;9.18;1.90;;;12.10;99.90;;;;;;5087367;28;20474;-46
2023/10/22 07:46:01;;;;;;;9.35;2.60;;;12.00;99.90;;;;;;5092204;28;20129;-47
2023/10/22 07:48:27;;;;;;;6.68;2.30;;;12.00;99.90;;;;;;5074429;28;20082;-47
2023/10/22 07:50:53;;;;;;;8.50;2.17;;;12.00;99.90;;;;;;5092468;28;20043;-46
2023/10/22 07:53:18;;;;;;;10.15;2.45;;;12.00;99.90;;;;;;5092074;28;20044;-48
2023/10/22 07:55:45;;;;;;;8.55;2.35;;;12.10;99.90;;;;;;5091988;28;20043;-45
2023/10/22 07:58:11;;;;;;;12.35;2.80;;;12.10;99.90;;;;;;5091652;28;20398;-46
2023/10/22 08:00:37;;;;;;;6.82;2.78;;;12.10;99.90;;;;;;5091712;28;20032;-46
2023/10/22 08:03:03;;;;;;;6.68;2.58;;;12.10;99.90;;;;;;5091785;28;20047;-46
2023/10/22 08:05:30;;;;;;;4.63;2.17;;;12.10;99.90;;;;;;5091799;28;20040;-47
2023/10/22 08:07:55;;;;;;;5.90;2.28;;;12.10;99.90;;;;;;5099188;28;20056;-47
2023/10/22 08:10:21;;;;;;;7.93;3.00;;;12.00;99.90;;;;;;5111729;28;20047;-46
2023/10/22 08:12:47;;;;;;;9.43;2.80;;;12.10;99.90;;;;;;5111981;28;20039;-47
2023/10/22 08:15:12;;;;;;;9.65;2.97;;;12.10;99.90;;;;;;5103161;28;20571;-45
2023/10/22 08:17:38;;;;;;;7.68;2.47;;;12.10;99.90;;;;;;5112125;28;20434;-48
2023/10/22 08:20:04;;;;;;;11.07;3.03;;;12.10;99.90;;;;;;5112095;28;20067;-46
2023/10/22 08:22:30;;;;;;;5.78;2.63;;;12.20;99.90;;;;;;5111988;28;20050;-48
2023/10/22 08:24:56;;;;;;;11.02;2.40;;;12.20;99.90;;;;;;5111088;28;20473;-47
2023/10/22 08:27:21;;;;;;;9.95;2.78;;;12.20;99.90;;;;;;5111748;28;20044;-47
2023/10/22 08:29:47;;;;;;;9.73;2.13;;;12.20;99.90;;;;;;5111592;28;20046;-46
2023/10/22 08:32:13;;;;;;;7.60;2.22;;;12.30;99.90;;;;;;5109044;28;20041;-48
2023/10/22 08:34:39;;;;;;;8.65;2.60;;;12.30;99.90;;;;;;5111903;28;20050;-44
2023/10/22 08:37:04;;;;;;;11.63;2.40;;;12.30;99.90;;;;;;5111486;28;20032;-47
2023/10/22 08:39:30;;;;;;;6.70;2.38;;;12.30;99.90;;;;;;5111798;28;20043;-45
2023/10/22 08:42:06;;;;;;;9.70;2.75;;;12.40;99.90;;;;;;5111581;28;20073;-45
2023/10/22 08:44:34;;;;;;;8.48;2.33;;;12.40;99.90;;;;;;5109146;28;20028;-50
2023/10/22 08:47:01;;;;;;;6.57;2.15;;;12.50;99.90;;;;;;5106710;28;20031;-48
2023/10/22 08:49:28;;;;;;;6.53;2.20;;;12.50;99.90;;;;;;5111710;28;20059;-47
2023/10/22 08:51:53;;;;;;;7.60;2.00;;;12.60;99.90;;;;;;5111404;28;20048;-47
2023/10/22 08:54:22;;;;;;;6.10;2.30;;;12.60;99.90;;;;;;5111313;28;20065;-47
2023/10/22 08:56:48;;;;;;;8.77;2.08;;;12.50;99.90;;;;;;5111772;28;20079;-47
2023/10/22 08:59:14;;;;;;;10.13;1.83;;;12.60;99.90;;;;;;5110722;28;20382;-47
2023/10/22 09:01:39;;;;;;;6.28;2.13;;;12.60;99.90;;;;;;5109242;28;20042;-46
2023/10/22 09:04:05;;;;;;;6.80;1.75;;;12.60;99.90;;;;;;5103087;28;20107;-46
2023/10/22 09:06:31;;;;;;;6.15;1.80;;;12.70;99.90;;;;;;5111832;28;20050;-50
2023/10/22 09:08:57;;;;;;;5.40;1.77;;;12.70;99.90;;;;;;5111624;28;20945;-48
2023/10/22 09:11:24;;;;;;;9.80;1.95;;;12.70;99.90;;;;;;5111837;28;20036;-47
2023/10/22 09:13:49;;;;;;;6.82;1.83;;;12.80;99.90;;;;;;5112323;28;20046;-49
2023/10/22 09:16:27;;;;;;;5.40;1.58;;;12.70;99.90;;;;;;5111548;28;20040;-46
2023/10/22 09:18:53;;;;;;;4.78;1.60;;;12.70;99.90;;;;;;5111506;28;20031;-49
2023/10/22 09:21:19;;;;;;;5.05;1.48;;;12.80;99.90;;;;;;5093521;28;20047;-48
2023/10/22 09:24:04;;;;;;;9.70;1.05;;;12.80;99.90;;;;;;5111814;28;20042;-46
2023/10/22 09:26:47;;;;;;;8.25;1.17;;;12.80;99.90;;;;;;5111441;28;20046;-47
2023/10/22 09:29:14;;;;;;;5.38;1.17;;;12.80;99.90;;;;;;5111841;28;20039;-49
2023/10/22 09:31:48;;;;;;;8.25;1.30;;;12.90;99.90;;;;;;5111797;28;20417;-49
2023/10/22 09:34:31;;;;;;;9.93;1.38;;;12.90;99.90;;;;;;5111439;28;20036;-47
2023/10/22 09:36:58;;;;;;;5.65;1.40;;;13.00;99.90;;;;;;5115446;28;20648;-48
2023/10/22 09:39:42;;;;;;;2.55;1.00;;;13.10;99.90;;;;;;5115941;28;20043;-48
2023/10/22 09:42:09;;;;;;;4.15;1.08;;;13.20;99.90;;;;;;5115676;28;20047;-48
2023/10/22 09:44:37;;;;;;;5.90;1.30;;;13.30;99.90;;;;;;5097237;28;20042;-46
2023/10/22 09:47:06;;;;;;;2.28;0.95;;;13.50;99.90;;;;;;5115674;28;20114;-46
2023/10/22 09:49:35;;;;;;;4.68;0.80;;;13.60;99.90;;;;;;5116005;28;20078;-49
2023/10/22 09:52:03;;;;;;;5.05;1.00;;;13.70;99.90;;;;;;5097543;28;20559;-49
2023/10/22 09:54:41;;;;;;;3.33;0.93;;;13.80;99.90;;;;;;5115382;28;20065;-46
2023/10/22 09:57:15;;;;;;;3.10;0.63;;;13.80;99.90;;;;;;5115463;28;20039;-46
2023/10/22 09:59:41;;;;;;;4.82;0.98;;;13.90;99.90;;;;;;5097426;28;20050;-47
2023/10/22 10:02:15;;;;;;;4.13;1.05;;;13.90;99.90;;;;;;5097145;28;20142;-46
2023/10/22 10:04:43;;;;;;;3.60;0.85;;;13.90;99.90;;;;;;5115082;28;20036;-46
2023/10/22 10:07:09;;;;;;;4.35;0.80;;;13.90;99.90;;;;;;5115144;28;20032;-46
2023/10/22 10:09:36;;;;;;;3.10;0.73;;;13.90;99.90;;;;;;5095535;28;20063;-47
2023/10/22 10:12:08;;;;;;;3.53;0.55;;;13.90;99.90;;;;;;5094598;28;20048;-46
2023/10/22 10:14:44;;;;;;;3.45;0.57;;;14.00;99.90;;;;;;5094635;28;20044;-46
2023/10/22 10:17:10;;;;;;;5.20;0.93;;;14.00;99.90;;;;;;5094558;28;20117;-48
2023/10/22 10:19:37;;;;;;;4.15;0.80;;;14.00;99.90;;;;;;5094604;28;20046;-49
2023/10/22 10:22:03;;;;;;;2.25;0.73;;;14.00;99.90;;;;;;5094750;28;20101;-46
2023/10/22 10:24:31;;;;;;;3.45;0.90;;;14.00;99.90;;;;;;5094116;28;20032;-47
2023/10/22 10:26:57;;;;;;;3.70;1.63;;;14.10;99.90;;;;;;5094762;28;20148;-48
2023/10/22 10:29:27;;;;;;;2.85;1.00;;;14.20;99.90;;;;;;5094510;28;20139;-46
2023/10/22 10:31:54;;;;;;;3.10;0.80;;;14.20;99.90;;;;;;5094749;28;20115;-49
2023/10/22 10:34:20;;;;;;;4.85;0.85;;;14.40;99.90;;;;;;5076292;28;20122;-46
2023/10/22 10:36:47;;;;;;;5.55;1.63;;;14.50;99.90;;;;;;5094333;28;20401;-49
2023/10/22 10:39:35;;;;;;;3.38;0.82;;;14.60;99.90;;;;;;5094157;28;20040;-48
2023/10/22 10:42:01;;;;;;;7.22;0.80;;;14.50;99.90;;;;;;5094303;28;20069;-46
2023/10/22 10:44:30;;;;;;;4.70;0.80;;;14.60;99.90;;;;;;5094018;28;20040;-46
2023/10/22 10:47:21;;;;;;;1.67;0.52;;;14.60;99.90;;;;;;5093379;28;20040;-51
2023/10/22 10:50:02;;;;;;;3.80;0.85;;;14.60;99.90;;;;;;5094295;28;20385;-46
2023/10/22 10:52:56;;;;;;;6.38;0.90;;;14.60;99.90;;;;;;5094172;28;20071;-45
2023/10/22 10:55:22;;;;;;;2.42;0.70;;;14.60;99.90;;;;;;5066368;28;20117;-51
2023/10/22 10:57:49;;;;;;;2.80;0.80;;;14.60;99.90;;;;;;5094044;28;20044;-47
2023/10/22 11:00:20;;;;;;;3.95;0.70;;;14.60;99.90;;;;;;5094277;28;20536;-47
2023/10/22 11:02:50;;;;;;;3.15;0.63;;;14.80;99.90;;;;;;5093956;28;20385;-45
2023/10/22 11:05:18;;;;;;;3.13;1.02;;;14.70;99.90;;;;;;5080623;28;20039;-49
2023/10/22 11:07:44;;;;;;;4.13;0.55;;;14.70;99.90;;;;;;5093765;28;20063;-48
2023/10/22 11:10:13;;;;;;;3.83;0.75;;;14.70;99.90;;;;;;5093246;28;20126;-48
2023/10/22 11:12:41;;;;;;;2.63;0.70;;;14.60;99.90;;;;;;5094002;28;20048;-48
2023/10/22 11:15:10;;;;;;;4.28;0.77;;;14.60;99.90;;;;;;5093521;28;20158;-46
2023/10/22 11:17:46;;;;;;;1.15;0.50;;;14.50;99.90;;;;;;5093781;28;20162;-48
2023/10/22 11:20:15;;;;;;;5.43;0.55;;;14.40;99.90;;;;;;5093613;28;20048;-45
2023/10/22 11:22:41;;;;;;;5.05;0.60;;;14.30;99.90;;;;;;5093454;28;20047;-48
2023/10/22 11:25:09;;;;;;;3.53;0.77;;;14.30;99.90;;;;;;5093641;28;20044;-45
2023/10/22 11:27:39;;;;;;;2.95;0.90;;;14.30;99.90;;;;;;5093238;28;20040;-47
2023/10/22 11:30:06;;;;;;;1.65;0.70;;;14.30;99.90;;;;;;5093242;28;20043;-45
2023/10/22 11:32:34;;;;;;;2.60;0.73;;;14.20;99.90;;;;;;5093209;28;20102;-47
2023/10/22 11:35:03;;;;;;;0.82;0.40;;;14.20;99.90;;;;;;5093003;28;20079;-48
2023/10/22 11:37:36;;;;;;;6.07;0.73;;;14.10;99.90;;;;;;5092972;28;20514;-46
2023/10/22 11:40:22;;;;;;;1.30;0.57;;;14.00;99.90;;;;;;5092861;28;20036;-48
2023/10/22 11:42:47;;;;;;;3.70;0.75;;;14.00;99.90;;;;;;5092939;28;20107;-46
2023/10/22 11:45:13;;;;;;;4.03;0.60;;;14.00;99.90;;;;;;5093103;28;20521;-46
2023/10/22 11:47:39;;;;;;;2.53;0.70;;;13.90;99.90;;;;;;5092899;28;20036;-45
2023/10/22 11:50:05;;;;;;;3.40;0.55;;;13.90;99.90;;;;;;5092838;28;20089;-46
2023/10/22 11:52:46;;;;;;;1.48;0.40;;;13.80;99.90;;;;;;5093139;28;20485;-48
2023/10/22 11:55:12;;;;;;;1.95;0.75;;;13.70;99.90;;;;;;5062399;28;20556;-47
2023/10/22 11:57:38;;;;;;;1.85;0.63;;;13.70;99.90;;;;;;5092720;28;20047;-47
2023/10/22 12:00:06;;;;;;;1.73;0.65;;;13.70;99.90;;;;;;5092482;28;20036;-45
2023/10/22 12:02:32;;;;;;;2.15;0.60;;;13.70;99.90;;;;;;5092820;28;20097;-45
2023/10/22 12:04:58;;;;;;;2.55;0.40;;;13.70;99.90;;;;;;5092554;28;20028;-46
2023/10/22 12:07:24;;;;;;;2.40;0.50;;;13.70;99.90;;;;;;5092413;28;20405;-47
2023/10/22 12:09:49;;;;;;;0.47;0.38;;;13.70;99.90;;;;;;5092201;28;20075;-45
2023/10/22 12:12:15;;;;;;;0.32;0.32;;;13.80;99.90;;;;;;5092537;28;20086;-45
2023/10/22 12:14:42;;;;;;;0.63;0.40;;;13.80;99.90;;;;;;5092156;28;20044;-47
2023/10/22 12:17:08;;;;;;;1.50;0.52;;;13.90;99.90;;;;;;5092880;28;20038;-48
2023/10/22 12:19:34;;;;;;;2.33;0.40;;;13.90;99.90;;;;;;5092521;28;20043;-47
2023/10/22 12:22:00;;;;;;;2.65;0.57;;;14.00;99.90;;;;;;5092421;28;20047;-46
2023/10/22 12:24:26;;;;;;;1.17;0.50;;;14.00;99.90;;;;;;5092395;28;20036;-46
2023/10/22 12:26:52;;;;;;;1.00;0.50;;;14.20;99.90;;;;;;5092165;28;20115;-46
2023/10/22 12:29:17;;;;;;;3.17;0.60;;;14.40;99.90;;;;;;5091980;28;20141;-46
2023/10/22 12:31:43;;;;;;;2.40;0.60;;;14.60;99.90;;;;;;5092152;28;20040;-47
2023/10/22 12:34:09;;;;;;;1.30;0.43;;;14.70;99.90;;;;;;5073900;28;20408;-47
2023/10/22 12:36:35;;;;;;;0.93;0.47;;;14.80;99.90;;;;;;5091924;28;20089;-49
2023/10/22 12:39:01;;;;;;;1.40;0.40;;;14.80;99.90;;;;;;5092067;28;20044;-45
2023/10/22 12:41:27;;;;;;;0.75;0.40;;;15.00;99.90;;;;;;5091810;28;20048;-47
2023/10/22 12:43:52;;;;;;;1.15;0.30;;;15.20;99.90;;;;;;5092046;28;20036;-47
2023/10/22 12:46:18;;;;;;;0.82;0.30;;;15.20;99.90;;;;;;5073929;28;20040;-47